Time;durP1;ratioP1;P1;durP2;ratioP2;P2;SDS_P1;SDS_P2;PMS_P1;PMS_P2;Temp;Humidity;BMP_temperature;BMP_pressure;BME280_temperature;BME280_humidity;BME280_pressure;Samples;Min_cycle;Max_cycle;Signal;HPM_P1;HPM_P2
2021/10/13 00:00:53;;;;;;;5.47;5.03;;;9.60;99.90;;;;;;5044050;28;20643;-85
2021/10/13 00:03:19;;;;;;;5.00;4.50;;;9.60;99.90;;;;;;5050113;28;20209;-85
2021/10/13 00:05:45;;;;;;;3.43;3.13;;;9.80;99.90;;;;;;5049493;28;20202;-85
2021/10/13 00:08:10;;;;;;;3.57;3.27;;;9.70;99.90;;;;;;5047087;28;20189;-85
2021/10/13 00:10:36;;;;;;;4.23;3.83;;;9.60;99.90;;;;;;5041327;28;20187;-85
2021/10/13 00:13:02;;;;;;;4.53;4.13;;;9.60;99.90;;;;;;5041762;28;20171;-85
2021/10/13 00:15:27;;;;;;;4.07;3.67;;;9.60;99.90;;;;;;5041479;28;20221;-86
2021/10/13 00:17:53;;;;;;;4.37;3.50;;;9.60;99.90;;;;;;5042293;28;20265;-85
2021/10/13 00:20:19;;;;;;;3.47;3.17;;;9.60;99.90;;;;;;5040773;28;20180;-85
2021/10/13 00:22:44;;;;;;;3.40;3.03;;;9.50;99.90;;;;;;5041146;28;20621;-85
2021/10/13 00:25:10;;;;;;;3.10;2.70;;;9.60;99.90;;;;;;5042396;28;20697;-83
2021/10/13 00:27:36;;;;;;;2.70;2.50;;;9.50;99.90;;;;;;5042435;28;20173;-85
2021/10/13 00:30:02;;;;;;;3.07;2.87;;;9.40;99.90;;;;;;5042872;28;20174;-84
2021/10/13 00:32:28;;;;;;;2.67;2.47;;;9.50;99.90;;;;;;5041538;28;20200;-85
2021/10/13 00:34:54;;;;;;;2.90;2.70;;;9.50;99.90;;;;;;5040942;28;20242;-86
2021/10/13 00:37:21;;;;;;;4.17;2.80;;;9.40;99.90;;;;;;5042069;28;20249;-85
2021/10/13 00:39:46;;;;;;;3.93;3.10;;;9.40;99.90;;;;;;5041418;28;20170;-85
2021/10/13 00:42:12;;;;;;;2.77;2.57;;;9.50;99.90;;;;;;5041861;28;20207;-85
2021/10/13 00:44:38;;;;;;;3.73;2.93;;;9.40;99.90;;;;;;5041841;28;20171;-86
2021/10/13 00:47:03;;;;;;;3.30;3.00;;;9.50;99.90;;;;;;5041668;28;20636;-85
2021/10/13 00:49:30;;;;;;;3.13;2.93;;;9.40;99.90;;;;;;5041943;28;20176;-85
2021/10/13 00:51:56;;;;;;;3.10;2.70;;;9.40;99.90;;;;;;5040452;28;20677;-86
2021/10/13 00:54:23;;;;;;;3.30;2.93;;;9.40;99.90;;;;;;5041801;28;20201;-85
2021/10/13 00:56:49;;;;;;;3.60;3.30;;;9.40;99.90;;;;;;5042922;28;20192;-86
2021/10/13 00:59:14;;;;;;;3.57;3.37;;;9.40;99.90;;;;;;5041278;28;20183;-86
2021/10/13 01:01:54;;;;;;;2.73;2.53;;;9.40;99.90;;;;;;5041929;28;20181;-86
2021/10/13 01:04:28;;;;;;;3.07;2.77;;;9.40;99.90;;;;;;5039112;28;20180;-86
2021/10/13 01:07:16;;;;;;;4.07;2.70;;;9.40;99.90;;;;;;5041206;28;20200;-85
2021/10/13 01:10:11;;;;;;;2.43;2.23;;;9.40;99.90;;;;;;5041775;28;20574;-85
2021/10/13 01:13:00;;;;;;;3.00;2.20;;;9.40;99.90;;;;;;5035947;28;20203;-84
2021/10/13 01:15:36;;;;;;;4.37;1.97;;;9.40;99.90;;;;;;5042127;28;20204;-85
2021/10/13 01:18:13;;;;;;;1.97;1.87;;;9.40;99.90;;;;;;5043542;28;20170;-86
2021/10/13 01:21:05;;;;;;;1.83;1.73;;;9.40;99.90;;;;;;5043767;28;20180;-86
2021/10/13 01:24:02;;;;;;;2.20;2.00;;;9.30;99.90;;;;;;5042392;28;20173;-86
2021/10/13 01:26:43;;;;;;;1.90;1.77;;;9.40;99.90;;;;;;5040936;28;20264;-85
2021/10/13 01:29:13;;;;;;;2.30;1.87;;;9.40;99.90;;;;;;5041971;28;20238;-85
2021/10/13 01:32:06;;;;;;;2.20;2.10;;;9.40;99.90;;;;;;5043746;28;20207;-86
2021/10/13 01:34:39;;;;;;;2.30;2.10;;;9.40;99.90;;;;;;5033553;28;20233;-86
2021/10/13 01:37:14;;;;;;;2.10;1.87;;;9.40;99.90;;;;;;5041547;28;20198;-85
2021/10/13 01:39:44;;;;;;;2.50;2.30;;;9.40;99.90;;;;;;5053094;28;20263;-86
2021/10/13 01:42:13;;;;;;;2.37;2.10;;;9.30;99.90;;;;;;5046617;28;20548;-86
2021/10/13 01:44:40;;;;;;;2.57;2.37;;;9.30;99.90;;;;;;5042506;28;20683;-85
2021/10/13 01:47:08;;;;;;;2.20;2.00;;;9.30;99.90;;;;;;5041939;28;20226;-85
2021/10/13 01:49:35;;;;;;;2.63;2.10;;;9.30;99.90;;;;;;5033753;28;20666;-86
2021/10/13 01:52:04;;;;;;;2.77;2.17;;;9.30;99.90;;;;;;5033963;28;20917;-86
2021/10/13 01:54:30;;;;;;;2.47;2.27;;;9.30;99.90;;;;;;5039193;28;20586;-86
2021/10/13 01:57:00;;;;;;;2.53;2.20;;;9.30;99.90;;;;;;5039640;28;20194;-86
2021/10/13 01:59:29;;;;;;;2.43;2.30;;;9.30;99.90;;;;;;5039643;28;20177;-85
2021/10/13 02:01:57;;;;;;;3.77;2.20;;;9.30;99.90;;;;;;5039477;28;20659;-85
2021/10/13 02:04:24;;;;;;;2.37;2.00;;;9.30;99.90;;;;;;5040380;28;20182;-85
2021/10/13 02:06:51;;;;;;;2.33;2.10;;;9.20;99.90;;;;;;5041207;28;20614;-86
2021/10/13 02:09:20;;;;;;;2.50;2.30;;;9.20;99.90;;;;;;5040933;28;20179;-85
2021/10/13 02:11:46;;;;;;;2.27;2.07;;;9.10;99.90;;;;;;5042497;28;20195;-85
2021/10/13 02:14:16;;;;;;;2.73;2.33;;;9.10;99.90;;;;;;5042216;28;20182;-85
2021/10/13 02:16:43;;;;;;;2.80;2.60;;;9.10;99.90;;;;;;5041181;28;20215;-85
2021/10/13 02:19:14;;;;;;;4.17;2.63;;;9.00;99.90;;;;;;5040998;28;20182;-85
2021/10/13 02:21:42;;;;;;;3.00;2.80;;;9.20;99.90;;;;;;5041340;28;20550;-86
2021/10/13 02:24:09;;;;;;;2.73;2.53;;;9.10;99.90;;;;;;5042140;28;20178;-86
2021/10/13 02:26:42;;;;;;;3.33;2.63;;;9.20;99.90;;;;;;5040668;28;20214;-85
2021/10/13 02:29:16;;;;;;;2.83;2.57;;;9.10;99.90;;;;;;5038351;28;20236;-85
2021/10/13 02:31:44;;;;;;;2.83;2.63;;;9.10;99.90;;;;;;5034852;28;20211;-85
2021/10/13 02:34:11;;;;;;;3.10;2.90;;;9.10;99.90;;;;;;5035930;28;20645;-85
2021/10/13 02:36:37;;;;;;;3.20;2.70;;;9.10;99.90;;;;;;5035731;28;20259;-85
2021/10/13 02:39:04;;;;;;;2.83;2.63;;;9.10;99.90;;;;;;5036695;28;20629;-85
2021/10/13 02:41:31;;;;;;;3.43;2.70;;;9.20;99.90;;;;;;5037699;28;20266;-85
2021/10/13 02:43:56;;;;;;;3.20;2.90;;;9.10;99.90;;;;;;5036538;28;20729;-85
2021/10/13 02:46:44;;;;;;;2.93;2.73;;;9.10;99.90;;;;;;5041350;28;20288;-85
2021/10/13 02:49:45;;;;;;;2.93;2.73;;;9.10;99.90;;;;;;5034516;28;20205;-85
2021/10/13 02:52:32;;;;;;;3.40;3.10;;;9.10;99.90;;;;;;5022750;28;20205;-84
2021/10/13 02:55:05;;;;;;;3.10;2.90;;;9.10;99.90;;;;;;5034534;28;20171;-85
2021/10/13 02:57:40;;;;;;;3.23;2.93;;;9.10;99.90;;;;;;5034905;28;20179;-85
2021/10/13 03:00:07;;;;;;;3.40;3.10;;;9.00;99.90;;;;;;5030536;28;20177;-85
2021/10/13 03:02:41;;;;;;;3.33;3.13;;;9.00;99.90;;;;;;5036372;28;20556;-85
2021/10/13 03:05:08;;;;;;;3.20;2.90;;;9.10;99.90;;;;;;5019504;28;20241;-85
2021/10/13 03:07:38;;;;;;;3.57;3.27;;;9.00;99.90;;;;;;5034678;28;20183;-85
2021/10/13 03:10:05;;;;;;;4.10;3.40;;;9.00;99.90;;;;;;5036886;28;20748;-85
2021/10/13 03:12:44;;;;;;;3.80;3.30;;;9.00;99.90;;;;;;5032434;28;20784;-86
2021/10/13 03:15:12;;;;;;;3.40;3.10;;;9.00;99.90;;;;;;5028574;28;20678;-83
2021/10/13 03:17:41;;;;;;;3.60;3.30;;;9.00;99.90;;;;;;5058119;23;20226;-82
2021/10/13 03:20:08;;;;;;;3.03;2.83;;;9.00;99.90;;;;;;5027446;28;20183;-83
2021/10/13 03:22:34;;;;;;;3.80;3.50;;;9.00;99.90;;;;;;5027608;28;20183;-83
2021/10/13 03:25:00;;;;;;;3.87;3.40;;;9.00;99.90;;;;;;5031560;28;20183;-83
2021/10/13 03:27:27;;;;;;;4.80;3.87;;;8.90;99.90;;;;;;5026529;28;20196;-82
2021/10/13 03:29:52;;;;;;;4.10;3.80;;;8.90;99.90;;;;;;5017264;28;20186;-82
2021/10/13 03:32:19;;;;;;;3.90;3.60;;;8.90;99.90;;;;;;5019006;28;20196;-82
2021/10/13 03:34:45;;;;;;;4.00;3.70;;;8.80;99.90;;;;;;5019133;28;20203;-83
2021/10/13 03:37:14;;;;;;;4.60;4.20;;;8.80;99.90;;;;;;5017689;28;20226;-83
2021/10/13 03:39:39;;;;;;;4.60;4.20;;;8.80;99.90;;;;;;5018337;28;20175;-83
2021/10/13 03:42:05;;;;;;;4.57;4.17;;;8.80;99.90;;;;;;5016675;28;20189;-82
2021/10/13 03:44:31;;;;;;;4.60;4.10;;;8.70;99.90;;;;;;5015645;28;20175;-82
2021/10/13 03:46:56;;;;;;;5.03;4.63;;;8.60;99.90;;;;;;5016218;28;20195;-82
2021/10/13 03:49:22;;;;;;;5.47;4.70;;;8.60;99.90;;;;;;5016350;28;20179;-83
2021/10/13 03:51:48;;;;;;;5.20;4.80;;;8.60;99.90;;;;;;5017588;28;20191;-82
2021/10/13 03:54:13;;;;;;;4.93;4.43;;;8.50;99.90;;;;;;5015566;28;20548;-82
2021/10/13 03:56:39;;;;;;;4.87;4.43;;;8.50;99.90;;;;;;5018257;28;20186;-82
2021/10/13 03:59:05;;;;;;;5.13;4.63;;;8.40;99.90;;;;;;5014520;28;20187;-82
2021/10/13 04:01:30;;;;;;;4.93;4.53;;;8.40;99.90;;;;;;5008680;28;20180;-82
2021/10/13 04:03:56;;;;;;;4.83;4.43;;;8.30;99.90;;;;;;5004279;28;20273;-83
2021/10/13 04:06:22;;;;;;;4.70;4.30;;;8.40;99.90;;;;;;5014974;28;20601;-82
2021/10/13 04:08:47;;;;;;;5.90;5.37;;;8.40;99.90;;;;;;5014977;28;20199;-83
2021/10/13 04:11:13;;;;;;;5.67;4.77;;;8.30;99.90;;;;;;5016079;28;20260;-83
2021/10/13 04:13:39;;;;;;;5.60;5.03;;;8.20;99.90;;;;;;5016111;28;20267;-83
2021/10/13 04:16:04;;;;;;;5.47;4.97;;;8.20;99.90;;;;;;5014274;28;20650;-82
2021/10/13 04:18:30;;;;;;;5.57;5.07;;;8.20;99.90;;;;;;5014187;28;20207;-82
2021/10/13 04:20:56;;;;;;;4.77;4.37;;;8.10;99.90;;;;;;5013044;28;20243;-83
2021/10/13 04:23:22;;;;;;;5.97;5.00;;;8.00;99.90;;;;;;5013749;28;20179;-82
2021/10/13 04:25:47;;;;;;;5.17;4.77;;;7.90;99.90;;;;;;5015120;28;20180;-82
2021/10/13 04:28:13;;;;;;;5.73;5.27;;;7.90;99.90;;;;;;5014415;28;20209;-82
2021/10/13 04:30:39;;;;;;;6.27;5.77;;;7.80;99.90;;;;;;5013926;28;20638;-82
2021/10/13 04:33:05;;;;;;;6.97;5.40;;;7.80;99.90;;;;;;5013533;28;20183;-82
2021/10/13 04:35:31;;;;;;;5.37;4.87;;;7.80;99.90;;;;;;5014293;28;20178;-83
2021/10/13 04:37:57;;;;;;;6.57;5.40;;;7.80;99.90;;;;;;5006609;28;20203;-82
2021/10/13 04:40:23;;;;;;;6.33;5.73;;;7.80;99.90;;;;;;5006968;28;20230;-82
2021/10/13 04:42:48;;;;;;;5.73;5.23;;;7.80;99.90;;;;;;5013684;28;20279;-82
2021/10/13 04:45:14;;;;;;;5.90;5.40;;;7.80;99.90;;;;;;5015632;28;20185;-82
2021/10/13 04:47:40;;;;;;;7.47;6.17;;;7.70;99.90;;;;;;5000898;28;20738;-82
2021/10/13 04:50:06;;;;;;;6.40;5.90;;;7.60;99.90;;;;;;5017286;28;20643;-83
2021/10/13 04:52:32;;;;;;;6.67;6.07;;;7.70;99.90;;;;;;5014029;28;20199;-81
2021/10/13 04:54:58;;;;;;;6.20;5.57;;;7.70;99.90;;;;;;5009411;28;20202;-83
2021/10/13 04:57:24;;;;;;;5.70;5.20;;;7.60;99.90;;;;;;5025263;28;20203;-82
2021/10/13 04:59:50;;;;;;;6.33;5.67;;;7.50;99.90;;;;;;5026216;28;20178;-83
2021/10/13 05:02:16;;;;;;;4.93;4.40;;;7.30;99.90;;;;;;5025983;28;20294;-83
2021/10/13 05:04:42;;;;;;;5.83;5.00;;;7.20;99.90;;;;;;5025499;28;20251;-82
2021/10/13 05:07:08;;;;;;;5.67;5.17;;;7.20;99.90;;;;;;5024021;28;20217;-82
2021/10/13 05:09:35;;;;;;;6.33;5.73;;;7.10;99.90;;;;;;5026448;28;20206;-82
2021/10/13 05:12:00;;;;;;;6.80;6.13;;;7.10;99.90;;;;;;5027884;28;20199;-82
2021/10/13 05:14:26;;;;;;;6.30;5.70;;;7.00;99.90;;;;;;5028304;28;20186;-83
2021/10/13 05:16:52;;;;;;;6.40;5.80;;;7.00;99.90;;;;;;5025286;28;20259;-84
2021/10/13 05:19:17;;;;;;;7.10;6.50;;;7.10;99.90;;;;;;5024334;28;20175;-82
2021/10/13 05:21:43;;;;;;;6.60;5.93;;;7.10;99.90;;;;;;5021288;28;20237;-82
2021/10/13 05:24:09;;;;;;;5.50;5.03;;;7.10;99.90;;;;;;5028528;28;20182;-82
2021/10/13 05:26:35;;;;;;;5.67;5.27;;;7.10;99.90;;;;;;5032198;28;20186;-81
2021/10/13 05:29:01;;;;;;;5.90;5.33;;;7.10;99.90;;;;;;5022545;28;20178;-83
2021/10/13 05:31:26;;;;;;;5.77;5.27;;;7.10;99.90;;;;;;5022487;28;20202;-82
2021/10/13 05:33:52;;;;;;;5.30;4.80;;;7.00;99.90;;;;;;5020144;28;20273;-83
2021/10/13 05:36:18;;;;;;;5.77;5.27;;;7.00;99.90;;;;;;5023934;28;20178;-83
2021/10/13 05:38:43;;;;;;;6.77;5.43;;;7.00;99.90;;;;;;5021239;28;20214;-82
2021/10/13 05:41:09;;;;;;;5.87;4.97;;;7.00;99.90;;;;;;5022815;28;20171;-82
2021/10/13 05:43:35;;;;;;;5.43;5.03;;;7.00;99.90;;;;;;5024674;28;20677;-83
2021/10/13 05:46:00;;;;;;;5.93;5.43;;;7.00;99.90;;;;;;5011992;28;20210;-82
2021/10/13 05:48:26;;;;;;;6.87;6.17;;;7.00;99.90;;;;;;5021178;28;20567;-82
2021/10/13 05:50:52;;;;;;;6.73;6.07;;;7.00;99.90;;;;;;5024812;28;20669;-83
2021/10/13 05:53:18;;;;;;;6.83;6.23;;;7.00;99.90;;;;;;5020445;28;20551;-82
2021/10/13 05:55:44;;;;;;;7.33;6.63;;;7.00;99.90;;;;;;5003287;28;20178;-82
2021/10/13 05:58:10;;;;;;;7.53;6.83;;;7.00;99.90;;;;;;5004924;28;20278;-82
2021/10/13 06:00:36;;;;;;;8.07;6.63;;;7.00;99.90;;;;;;5009951;28;20175;-82
2021/10/13 06:03:02;;;;;;;5.23;4.83;;;7.00;99.90;;;;;;5009497;28;20171;-83
2021/10/13 06:05:28;;;;;;;5.80;5.23;;;6.90;99.90;;;;;;5008051;28;20190;-82
2021/10/13 06:07:54;;;;;;;5.90;5.40;;;6.70;99.90;;;;;;5000152;28;20286;-82
2021/10/13 06:10:20;;;;;;;6.77;5.00;;;6.80;99.90;;;;;;5013526;28;20180;-82
2021/10/13 06:12:45;;;;;;;5.67;5.17;;;6.80;99.90;;;;;;5002522;28;20254;-82
2021/10/13 06:15:11;;;;;;;9.97;9.17;;;6.80;99.90;;;;;;5004259;28;20190;-82
2021/10/13 06:17:38;;;;;;;8.10;5.57;;;6.80;99.90;;;;;;5000907;28;20291;-82
2021/10/13 06:20:05;;;;;;;6.40;5.80;;;6.80;99.90;;;;;;5002561;28;20750;-82
2021/10/13 06:22:31;;;;;;;7.00;6.40;;;6.70;99.90;;;;;;5005845;28;20174;-83
2021/10/13 06:24:56;;;;;;;7.07;6.37;;;6.70;99.90;;;;;;5025329;28;20202;-82
2021/10/13 06:27:26;;;;;;;7.73;7.00;;;6.70;99.90;;;;;;5021448;28;20202;-82
2021/10/13 06:29:51;;;;;;;8.83;7.83;;;6.70;99.90;;;;;;5019586;28;20214;-82
2021/10/13 06:32:17;;;;;;;9.70;7.57;;;6.80;99.90;;;;;;5020895;28;20200;-82
2021/10/13 06:34:42;;;;;;;6.53;4.90;;;6.80;99.90;;;;;;5011435;28;20193;-83
2021/10/13 06:37:08;;;;;;;6.73;6.23;;;6.80;99.90;;;;;;5014866;28;20253;-82
2021/10/13 06:39:37;;;;;;;7.43;6.73;;;6.80;99.90;;;;;;5010194;28;20168;-82
2021/10/13 06:42:03;;;;;;;8.50;7.70;;;6.80;99.90;;;;;;5018503;28;20171;-82
2021/10/13 06:44:29;;;;;;;9.10;8.20;;;6.80;99.90;;;;;;5005914;28;20187;-82
2021/10/13 06:46:55;;;;;;;8.50;7.70;;;6.80;99.90;;;;;;5018085;28;21370;-82
2021/10/13 06:49:20;;;;;;;8.40;7.60;;;6.80;99.90;;;;;;5012146;28;20259;-83
2021/10/13 06:51:47;;;;;;;8.43;7.63;;;6.90;99.90;;;;;;5005899;28;20211;-82
2021/10/13 06:54:12;;;;;;;7.97;7.37;;;6.90;99.90;;;;;;5003513;28;20175;-83
2021/10/13 06:56:38;;;;;;;10.40;8.23;;;7.00;99.90;;;;;;5001896;28;20560;-82
2021/10/13 06:59:04;;;;;;;8.17;6.93;;;7.00;99.90;;;;;;5009311;28;20618;-83
2021/10/13 07:01:30;;;;;;;7.50;6.90;;;7.00;99.90;;;;;;5003623;28;20172;-82
2021/10/13 07:03:55;;;;;;;7.23;6.57;;;7.00;99.90;;;;;;5018446;28;20190;-83
2021/10/13 07:06:21;;;;;;;7.83;7.13;;;7.10;99.90;;;;;;5020627;28;20186;-83
2021/10/13 07:08:47;;;;;;;6.60;6.07;;;7.20;99.90;;;;;;5022088;28;20191;-83
2021/10/13 07:11:13;;;;;;;8.30;7.27;;;7.20;99.90;;;;;;5020743;28;20205;-83
2021/10/13 07:13:39;;;;;;;7.40;6.33;;;7.20;99.90;;;;;;5019442;28;20170;-83
2021/10/13 07:16:05;;;;;;;7.37;6.53;;;7.30;99.90;;;;;;5029491;28;20174;-83
2021/10/13 07:18:31;;;;;;;7.67;6.10;;;7.40;99.90;;;;;;5028908;28;20222;-83
2021/10/13 07:20:58;;;;;;;6.20;5.70;;;7.30;99.90;;;;;;5019576;28;20190;-82
2021/10/13 07:23:24;;;;;;;9.50;6.40;;;7.30;99.90;;;;;;5020490;28;20547;-82
2021/10/13 07:25:50;;;;;;;6.47;5.90;;;7.50;99.90;;;;;;5018961;28;20163;-83
2021/10/13 07:28:15;;;;;;;7.23;6.37;;;7.50;99.90;;;;;;5017373;28;20199;-82
2021/10/13 07:30:41;;;;;;;4.97;4.57;;;7.50;99.90;;;;;;5020512;28;20171;-82
2021/10/13 07:33:07;;;;;;;5.53;5.07;;;7.60;99.90;;;;;;5008614;28;20261;-82
2021/10/13 07:35:34;;;;;;;6.70;6.10;;;7.60;99.90;;;;;;5022767;28;20229;-82
2021/10/13 07:38:00;;;;;;;5.77;5.20;;;7.60;99.90;;;;;;5037449;28;20205;-85
2021/10/13 07:40:26;;;;;;;8.20;6.60;;;7.60;99.90;;;;;;5024630;28;20215;-84
2021/10/13 07:42:52;;;;;;;7.47;6.27;;;7.70;99.90;;;;;;5021802;28;20175;-84
2021/10/13 07:45:18;;;;;;;7.23;5.67;;;7.70;99.90;;;;;;5024793;28;20234;-83
2021/10/13 07:47:45;;;;;;;6.23;5.63;;;7.70;99.90;;;;;;5038810;28;20214;-83
2021/10/13 07:50:11;;;;;;;5.70;5.17;;;7.60;99.90;;;;;;5025209;28;20167;-84
2021/10/13 07:52:37;;;;;;;5.97;5.47;;;7.70;99.90;;;;;;5026143;28;20253;-85
2021/10/13 07:55:04;;;;;;;5.47;4.97;;;7.70;99.90;;;;;;5027077;28;20251;-84
2021/10/13 07:57:29;;;;;;;7.40;5.97;;;7.70;99.90;;;;;;5027678;28;20204;-84
2021/10/13 07:59:55;;;;;;;5.50;5.00;;;7.80;99.90;;;;;;5038605;28;20198;-84
2021/10/13 08:02:21;;;;;;;6.10;5.50;;;7.80;99.90;;;;;;5022602;28;20180;-84
2021/10/13 08:04:46;;;;;;;5.63;5.13;;;7.80;99.90;;;;;;5021553;28;20627;-83
2021/10/13 08:07:12;;;;;;;6.53;5.23;;;7.90;99.90;;;;;;5016154;28;20235;-83
2021/10/13 08:09:38;;;;;;;6.07;5.57;;;7.90;99.90;;;;;;5024798;28;20186;-83
2021/10/13 08:12:04;;;;;;;5.23;4.67;;;8.00;99.90;;;;;;5025452;28;20234;-82
2021/10/13 08:14:30;;;;;;;6.07;4.77;;;8.10;99.90;;;;;;5038312;28;20174;-84
2021/10/13 08:16:57;;;;;;;4.57;4.13;;;8.10;99.90;;;;;;5032300;28;20238;-85
2021/10/13 08:19:24;;;;;;;3.63;3.23;;;8.10;99.90;;;;;;5023111;28;20171;-84
2021/10/13 08:21:50;;;;;;;3.93;3.43;;;8.10;99.90;;;;;;5020708;28;20239;-83
2021/10/13 08:24:15;;;;;;;4.60;3.70;;;8.10;99.90;;;;;;5020685;28;20643;-82
2021/10/13 08:26:41;;;;;;;4.50;4.10;;;8.10;99.90;;;;;;5015029;28;20203;-82
2021/10/13 08:29:07;;;;;;;4.00;3.70;;;8.20;99.90;;;;;;5023028;28;20198;-81
2021/10/13 08:31:33;;;;;;;3.27;3.00;;;8.20;99.90;;;;;;5011086;28;20204;-82
2021/10/13 08:33:58;;;;;;;3.47;2.80;;;8.30;99.90;;;;;;5021223;28;20167;-82
2021/10/13 08:36:24;;;;;;;3.00;2.80;;;8.40;99.90;;;;;;5013346;28;20569;-82
2021/10/13 08:38:50;;;;;;;3.30;3.00;;;8.30;99.90;;;;;;5019266;28;20693;-83
2021/10/13 08:41:15;;;;;;;3.73;3.33;;;8.40;99.90;;;;;;5021098;28;20176;-83
2021/10/13 08:43:45;;;;;;;3.87;3.57;;;8.40;99.90;;;;;;5019750;28;20214;-82
2021/10/13 08:46:11;;;;;;;4.30;3.07;;;8.40;99.90;;;;;;5023342;28;20201;-83
2021/10/13 08:48:37;;;;;;;3.40;3.10;;;8.50;99.90;;;;;;5011508;28;20211;-83
2021/10/13 08:51:03;;;;;;;3.30;3.00;;;8.60;99.90;;;;;;4999993;28;20226;-84
2021/10/13 08:53:29;;;;;;;5.17;2.97;;;8.60;99.90;;;;;;5004427;28;20228;-83
2021/10/13 08:55:55;;;;;;;6.33;3.73;;;8.60;99.90;;;;;;5006586;28;20638;-82
2021/10/13 08:58:22;;;;;;;5.00;3.20;;;8.60;99.90;;;;;;5019559;28;20199;-81
2021/10/13 09:01:04;;;;;;;4.73;3.00;;;8.60;99.90;;;;;;5010625;28;20176;-83
2021/10/13 09:03:44;;;;;;;4.07;3.03;;;8.70;99.90;;;;;;5000474;28;20172;-83
2021/10/13 09:06:43;;;;;;;4.43;2.90;;;8.70;99.90;;;;;;5014133;28;20171;-83
2021/10/13 09:09:12;;;;;;;4.03;2.97;;;8.70;99.90;;;;;;5012461;28;20202;-82
2021/10/13 09:11:43;;;;;;;3.83;2.90;;;8.80;99.90;;;;;;5012137;28;20230;-82
2021/10/13 09:14:29;;;;;;;2.90;2.60;;;8.80;99.90;;;;;;5005128;28;20592;-82
2021/10/13 09:17:10;;;;;;;3.13;2.70;;;9.00;99.90;;;;;;5003435;28;20557;-82
2021/10/13 09:19:50;;;;;;;3.70;2.90;;;8.90;99.90;;;;;;5039026;23;20230;-83
2021/10/13 09:22:18;;;;;;;3.03;2.83;;;8.90;99.90;;;;;;5043914;28;20653;-83
2021/10/13 09:24:47;;;;;;;2.63;2.43;;;8.90;99.90;;;;;;5041865;28;20185;-84
2021/10/13 09:27:29;;;;;;;2.37;2.27;;;8.90;99.90;;;;;;5040510;28;20194;-83
2021/10/13 09:29:59;;;;;;;2.77;2.57;;;9.00;99.90;;;;;;5044086;28;20287;-83
2021/10/13 09:32:28;;;;;;;2.67;2.10;;;9.00;99.90;;;;;;5043806;28;20198;-84
2021/10/13 09:34:57;;;;;;;2.93;2.00;;;9.00;99.90;;;;;;5041609;28;20189;-83
2021/10/13 09:37:24;;;;;;;2.83;2.40;;;9.20;99.90;;;;;;5060227;28;20181;-83
2021/10/13 09:40:04;;;;;;;2.70;1.87;;;9.30;99.90;;;;;;5044437;28;20198;-84
2021/10/13 09:42:38;;;;;;;3.23;1.70;;;9.40;99.90;;;;;;5036863;28;20650;-84
2021/10/13 09:45:05;;;;;;;3.87;1.90;;;9.60;99.90;;;;;;5046122;28;20193;-84
2021/10/13 09:47:34;;;;;;;2.47;1.60;;;9.70;99.90;;;;;;5025660;28;20190;-84
2021/10/13 09:50:01;;;;;;;1.80;1.57;;;10.10;99.90;;;;;;5043679;28;20206;-85
2021/10/13 09:52:30;;;;;;;1.73;1.10;;;9.80;99.90;;;;;;5045126;28;20195;-85
2021/10/13 09:55:09;;;;;;;4.37;1.37;;;9.80;99.90;;;;;;5042426;28;20659;-81
2021/10/13 09:57:45;;;;;;;3.03;1.30;;;9.70;99.90;;;;;;5023583;28;20195;-82
2021/10/13 10:00:16;;;;;;;2.80;1.47;;;9.60;99.90;;;;;;5043125;28;20244;-85
2021/10/13 10:02:49;;;;;;;3.20;1.37;;;9.60;99.90;;;;;;5044163;28;20178;-84
2021/10/13 10:05:18;;;;;;;1.70;1.60;;;9.70;99.90;;;;;;5019827;28;20239;-84
2021/10/13 10:08:03;;;;;;;3.07;1.70;;;9.40;99.90;;;;;;5039102;28;20187;-83
2021/10/13 10:10:29;;;;;;;2.63;1.50;;;9.50;99.90;;;;;;5030668;28;20171;-85
2021/10/13 10:13:08;;;;;;;3.80;1.30;;;9.50;99.90;;;;;;5041045;28;20199;-85
2021/10/13 10:15:41;;;;;;;2.23;1.47;;;9.50;99.90;;;;;;5013572;28;20167;-85
2021/10/13 10:18:26;;;;;;;1.53;1.20;;;9.50;99.90;;;;;;5040621;28;20233;-84
2021/10/13 10:20:53;;;;;;;1.47;1.20;;;9.50;99.90;;;;;;5042265;28;20242;-84
2021/10/13 10:23:31;;;;;;;2.77;1.60;;;9.60;99.90;;;;;;5032741;28;20260;-85
2021/10/13 10:26:00;;;;;;;2.43;1.50;;;9.80;99.90;;;;;;5059876;28;20273;-84
2021/10/13 10:28:47;;;;;;;2.80;1.20;;;10.00;99.90;;;;;;5035743;28;20221;-84
2021/10/13 10:31:28;;;;;;;2.07;0.90;;;10.20;99.90;;;;;;5040054;28;20198;-85
2021/10/13 10:34:02;;;;;;;3.60;1.30;;;10.20;99.90;;;;;;5038768;28;20175;-84
2021/10/13 10:36:34;;;;;;;1.90;1.00;;;10.40;99.90;;;;;;5033533;28;20238;-85
2021/10/13 10:39:08;;;;;;;2.20;1.27;;;10.40;99.90;;;;;;5021536;28;20250;-87
2021/10/13 10:41:55;;;;;;;2.43;1.33;;;10.40;99.90;;;;;;5030017;28;20175;-84
2021/10/13 10:44:26;;;;;;;1.20;1.10;;;10.30;99.90;;;;;;5024948;28;20198;-85
2021/10/13 10:47:10;;;;;;;1.53;0.70;;;10.40;99.90;;;;;;5035576;28;20271;-85
2021/10/13 10:49:51;;;;;;;1.67;0.90;;;10.60;99.90;;;;;;5056222;28;20200;-85
2021/10/13 10:52:26;;;;;;;1.93;0.97;;;10.70;99.90;;;;;;5035364;28;20211;-85
2021/10/13 10:54:52;;;;;;;2.67;1.10;;;10.80;99.90;;;;;;5018701;28;20380;-86
2021/10/13 10:57:39;;;;;;;1.03;0.70;;;10.80;99.90;;;;;;5022474;28;20175;-85
2021/10/13 11:00:08;;;;;;;0.90;0.77;;;10.80;99.90;;;;;;5013052;28;20209;-86
2021/10/13 11:02:35;;;;;;;1.03;0.63;;;10.80;99.90;;;;;;5016404;28;20193;-87
2021/10/13 11:05:08;;;;;;;1.97;1.00;;;10.70;99.90;;;;;;5030494;28;20192;-87
2021/10/13 11:07:35;;;;;;;1.33;0.90;;;10.80;99.90;;;;;;5018075;28;20172;-87
2021/10/13 11:10:05;;;;;;;1.63;1.20;;;10.80;99.90;;;;;;5035149;28;20221;-87
2021/10/13 11:12:48;;;;;;;1.30;1.20;;;10.90;99.90;;;;;;5011108;28;20200;-87
2021/10/13 11:15:15;;;;;;;1.00;0.90;;;11.10;99.90;;;;;;5028705;28;20172;-85
2021/10/13 11:17:40;;;;;;;3.27;0.80;;;11.00;99.90;;;;;;5013144;28;20249;-88
2021/10/13 11:20:25;;;;;;;1.17;0.90;;;11.20;99.90;;;;;;5030594;28;20219;-87
2021/10/13 11:22:58;;;;;;;1.40;0.83;;;11.20;99.90;;;;;;5015865;28;20184;-87
2021/10/13 11:25:24;;;;;;;1.30;0.90;;;11.30;99.90;;;;;;5011549;28;20489;-87
2021/10/13 11:28:03;;;;;;;0.87;0.70;;;11.20;99.90;;;;;;5026837;28;20180;-89
2021/10/13 11:30:41;;;;;;;1.40;0.80;;;11.20;99.90;;;;;;5004864;28;20264;-86
2021/10/13 11:33:08;;;;;;;1.60;0.70;;;11.20;99.90;;;;;;5019815;28;20563;-87
2021/10/13 11:35:35;;;;;;;2.13;1.70;;;11.10;99.90;;;;;;5024668;28;20177;-86
2021/10/13 11:38:04;;;;;;;1.10;0.80;;;11.10;99.90;;;;;;5003745;28;20186;-86
2021/10/13 11:40:30;;;;;;;1.57;1.00;;;11.20;99.90;;;;;;5016079;28;20259;-87
2021/10/13 11:42:57;;;;;;;2.00;1.60;;;11.40;99.90;;;;;;5016123;28;20210;-87
2021/10/13 11:45:24;;;;;;;0.93;0.83;;;11.50;99.90;;;;;;5020921;28;20178;-87
2021/10/13 11:47:50;;;;;;;0.90;0.80;;;11.50;99.90;;;;;;5021183;28;20689;-87
2021/10/13 11:50:20;;;;;;;1.20;1.10;;;11.50;99.90;;;;;;5015180;28;20282;-87
2021/10/13 11:52:54;;;;;;;1.53;0.80;;;11.50;99.90;;;;;;5016909;28;20257;-87
2021/10/13 11:55:25;;;;;;;0.83;0.63;;;11.50;99.90;;;;;;5018346;28;20178;-87
2021/10/13 11:57:52;;;;;;;1.33;1.00;;;11.60;99.90;;;;;;5015539;28;20256;-87
2021/10/13 12:00:21;;;;;;;2.93;0.87;;;11.60;99.90;;;;;;5028671;28;20199;-87
2021/10/13 12:03:04;;;;;;;1.67;0.90;;;11.60;99.90;;;;;;5020030;28;20209;-87
2021/10/13 12:05:34;;;;;;;1.57;0.80;;;11.50;99.90;;;;;;5022197;28;20177;-87
2021/10/13 12:08:05;;;;;;;1.00;0.70;;;11.40;99.90;;;;;;5035918;28;20182;-87
2021/10/13 12:10:52;;;;;;;0.70;0.60;;;11.30;99.90;;;;;;5051569;28;20204;-87
2021/10/13 12:13:29;;;;;;;2.00;0.90;;;11.20;99.90;;;;;;5040716;28;20190;-86
2021/10/13 12:16:06;;;;;;;0.50;0.50;;;11.20;99.90;;;;;;5052230;28;20211;-88
2021/10/13 12:18:37;;;;;;;2.30;2.10;;;11.20;99.90;;;;;;5027663;28;20217;-87
2021/10/13 12:21:03;;;;;;;1.63;0.70;;;11.20;99.90;;;;;;5018753;28;20261;-86
2021/10/13 12:23:39;;;;;;;1.00;0.77;;;11.40;99.90;;;;;;5007393;28;20222;-87
2021/10/13 12:26:14;;;;;;;0.77;0.53;;;11.40;99.90;;;;;;5018106;28;20179;-87
2021/10/13 12:28:39;;;;;;;1.97;0.80;;;11.50;99.90;;;;;;5013636;28;20195;-87
2021/10/13 12:31:11;;;;;;;1.97;0.73;;;11.60;99.90;;;;;;5013150;28;20193;-87
2021/10/13 12:33:44;;;;;;;1.87;0.63;;;11.70;99.90;;;;;;5021258;28;20177;-87
2021/10/13 12:36:17;;;;;;;1.80;0.77;;;11.80;99.90;;;;;;5017002;28;20185;-86
2021/10/13 12:38:53;;;;;;;2.07;0.97;;;11.70;99.90;;;;;;5032199;28;20290;-87
2021/10/13 12:41:19;;;;;;;14.20;6.30;;;11.80;99.90;;;;;;5019087;28;20204;-86
2021/10/13 12:43:51;;;;;;;2.27;1.10;;;11.70;99.90;;;;;;5024622;28;20202;-86
2021/10/13 12:46:23;;;;;;;1.60;0.80;;;11.70;99.90;;;;;;5035325;28;20197;-86
2021/10/13 12:48:50;;;;;;;1.83;1.00;;;11.80;99.90;;;;;;5032448;28;20631;-86
2021/10/13 12:51:16;;;;;;;1.10;0.80;;;11.90;99.90;;;;;;5032371;28;20211;-87
2021/10/13 12:53:43;;;;;;;1.03;0.60;;;11.90;99.90;;;;;;5034338;28;20177;-87
2021/10/13 12:56:09;;;;;;;0.83;0.60;;;11.80;99.90;;;;;;5026032;28;20181;-87
2021/10/13 12:58:35;;;;;;;1.57;0.80;;;11.80;99.90;;;;;;5028473;28;20197;-87
2021/10/13 13:01:05;;;;;;;1.27;0.73;;;11.70;99.90;;;;;;5019752;28;20312;-89
2021/10/13 13:03:31;;;;;;;2.17;0.80;;;11.80;99.90;;;;;;5040939;28;20191;-88
2021/10/13 13:05:57;;;;;;;1.67;0.60;;;11.80;99.90;;;;;;5033780;28;20174;-86